Weather at Stan Jost Airport

Public forecast

Using degrees Fahrenheit for public forecast. Weather courtesy of forecast.io.

Closest aviation weather report (METAR) to Stan Jost Airport

Closest report is Mc Minnville Municipal Airport, 9.2 nm (17.0 km) SSW. Retrieved 2021/06/19 20:53 UTC (39 minutes ago):

KMMV 192053Z AUTO 13005KT 10SM CLR 25/12 A3004 RMK AO2 SLP171 T02500122 58018

Closest aviation forecast (TAF) to Stan Jost Airport

Closest forecast is Aurora State Airport, 11.5 nm (21.3 km) ESE. Retrieved 2021/06/19 18:38 UTC (3 hours ago):

TAF KUAO 191738Z 1918/2018 VRB04KT P6SM FEW250 FM192100 35007KT P6SM SKC FM200900 VRB04KT P6SM SKC